Time;durP1;ratioP1;P1;durP2;ratioP2;P2;SDS_P1;SDS_P2;PMS_P1;PMS_P2;Temp;Humidity;BMP_temperature;BMP_pressure;BME280_temperature;BME280_humidity;BME280_pressure;Samples;Min_cycle;Max_cycle;Signal;HPM_P1;HPM_P2
2022/11/19 00:01:16;;;;;;;2.95;0.60;;;;;;;6.77;98.02;96088.53;1637271;87;21044;-85
2022/11/19 00:03:43;;;;;;;0.80;0.50;;;;;;;6.69;97.98;96088.88;1637487;87;20997;-80
2022/11/19 00:06:14;;;;;;;1.05;0.40;;;;;;;6.67;98.19;96093.38;1635992;87;21472;-76
2022/11/19 00:08:41;;;;;;;0.50;0.30;;;;;;;6.66;98.16;96100.88;1634617;88;20988;-82
2022/11/19 00:11:15;;;;;;;0.40;0.40;;;;;;;6.60;97.01;96107.71;1627036;87;21068;-83
2022/11/19 00:13:42;;;;;;;0.55;0.40;;;;;;;6.50;97.27;96113.86;1625343;88;21051;-82
2022/11/19 00:16:12;;;;;;;1.42;0.30;;;;;;;6.41;97.29;96123.02;1624011;88;21099;-82
2022/11/19 00:18:40;;;;;;;0.40;0.30;;;;;;;6.36;96.98;96126.30;1630263;88;21092;-81
2022/11/19 00:21:12;;;;;;;0.20;0.20;;;;;;;6.27;96.42;96149.06;1620738;87;21096;-80
2022/11/19 00:23:39;;;;;;;0.30;0.20;;;;;;;6.17;95.53;96156.47;1621164;88;21544;-80
2022/11/19 00:26:13;;;;;;;0.20;0.13;;;;;;;6.08;95.87;96164.28;1616868;88;21052;-81
2022/11/19 00:28:41;;;;;;;0.37;0.30;;;;;;;5.99;95.94;96177.33;1616659;88;21096;-81
2022/11/19 00:31:15;;;;;;;0.72;0.37;;;;;;;5.88;95.08;96179.52;1613303;88;21465;-80
2022/11/19 00:33:44;;;;;;;0.40;0.30;;;;;;;5.81;95.51;96186.78;1629103;87;21086;-79
2022/11/19 00:36:14;;;;;;;0.23;0.20;;;;;;;5.74;94.29;96206.36;1620408;87;21056;-78
2022/11/19 00:38:41;;;;;;;0.70;0.40;;;;;;;5.64;94.17;96221.17;1635605;87;21079;-78
2022/11/19 00:41:08;;;;;;;0.68;0.40;;;;;;;5.56;94.39;96231.11;1645812;86;21039;-79
2022/11/19 00:43:47;;;;;;;1.52;0.70;;;;;;;5.47;94.96;96237.58;1646352;87;20996;-80
2022/11/19 00:46:27;;;;;;;1.00;0.55;;;;;;;5.36;93.29;96241.91;1637006;87;21016;-80
2022/11/19 00:48:56;;;;;;;1.67;0.70;;;;;;;5.29;94.42;96249.16;1617452;88;20983;-81
2022/11/19 00:51:28;;;;;;;1.10;0.72;;;;;;;5.25;94.38;96254.59;1647960;87;21004;-81
2022/11/19 00:53:57;;;;;;;1.57;0.75;;;;;;;5.18;94.27;96256.58;1634300;87;21024;-80
2022/11/19 00:56:26;;;;;;;0.50;0.30;;;;;;;5.12;94.13;96271.25;1627504;87;21064;-77
2022/11/19 00:58:54;;;;;;;0.47;0.30;;;;;;;5.05;93.87;96277.17;1635774;87;21051;-77
2022/11/19 01:01:23;;;;;;;0.50;0.30;;;;;;;5.00;93.79;96290.91;1643859;87;21121;-78
2022/11/19 01:03:51;;;;;;;0.30;0.30;;;;;;;4.89;93.65;96301.34;1643465;87;20977;-78
2022/11/19 01:06:21;;;;;;;0.30;0.30;;;;;;;4.83;93.48;96321.68;1641131;87;21012;-80
2022/11/19 01:08:50;;;;;;;1.60;0.50;;;;;;;4.75;93.40;96325.44;1642368;87;21084;-79
2022/11/19 01:11:22;;;;;;;0.35;0.33;;;;;;;4.70;93.22;96333.89;1643466;87;21015;-80
2022/11/19 01:13:49;;;;;;;0.53;0.53;;;;;;;4.66;93.37;96322.24;1642731;86;20981;-79
2022/11/19 01:16:20;;;;;;;0.80;0.60;;;;;;;4.65;93.95;96323.16;1643810;87;21012;-78
2022/11/19 01:18:49;;;;;;;1.07;0.47;;;;;;;4.60;92.81;96325.47;1643695;87;21474;-79
2022/11/19 01:21:19;;;;;;;0.37;0.30;;;;;;;4.56;93.91;96330.41;1643779;87;20997;-79
2022/11/19 01:23:46;;;;;;;0.50;0.40;;;;;;;4.57;94.07;96342.61;1637181;87;21032;-80
2022/11/19 01:26:15;;;;;;;0.40;0.30;;;;;;;4.56;94.45;96348.78;1632136;87;21348;-80
2022/11/19 01:28:42;;;;;;;0.70;0.42;;;;;;;4.51;93.83;96348.07;1643670;87;21043;-81
2022/11/19 01:31:22;;;;;;;2.17;0.50;;;;;;;4.52;94.09;96358.13;1643887;87;21113;-81
2022/11/19 01:33:49;;;;;;;0.98;0.70;;;;;;;4.48;93.87;96357.34;1643774;87;21048;-81
2022/11/19 01:36:21;;;;;;;2.98;0.70;;;;;;;4.39;93.95;96365.05;1643870;87;20988;-82
2022/11/19 01:38:51;;;;;;;0.42;0.40;;;;;;;4.38;94.28;96371.21;1628435;87;21088;-82
2022/11/19 01:41:22;;;;;;;0.65;0.28;;;;;;;4.31;93.93;96377.09;1637900;88;21438;-82
2022/11/19 01:44:00;;;;;;;1.70;0.50;;;;;;;4.29;94.21;96382.85;1637697;86;21060;-81
2022/11/19 01:46:33;;;;;;;1.05;0.40;;;;;;;4.23;94.14;96389.57;1637862;87;21075;-81
2022/11/19 01:49:07;;;;;;;1.22;0.42;;;;;;;4.19;94.08;96386.66;1638043;87;21020;-81
2022/11/19 01:51:51;;;;;;;2.55;0.60;;;;;;;4.14;94.44;96376.73;1638080;87;21004;-81
2022/11/19 01:54:40;;;;;;;1.13;0.67;;;;;;;4.10;94.10;96391.70;1637749;87;21494;-81
2022/11/19 01:57:12;;;;;;;0.57;0.37;;;;;;;4.04;93.89;96391.45;1637950;87;21478;-81
2022/11/19 01:59:41;;;;;;;1.30;0.40;;;;;;;4.02;93.76;96401.11;1637859;87;21032;-81
2022/11/19 02:02:07;;;;;;;0.40;0.30;;;;;;;4.00;93.93;96404.24;1637928;88;21043;-80
2022/11/19 02:04:37;;;;;;;0.98;0.20;;;;;;;3.98;93.80;96405.19;1627029;88;21017;-81
2022/11/19 02:07:04;;;;;;;0.55;0.40;;;;;;;3.88;92.68;96408.07;1626878;88;21009;-81
2022/11/19 02:09:32;;;;;;;0.50;0.25;;;;;;;3.85;93.60;96406.00;1626958;88;20985;-82
2022/11/19 02:12:32;;;;;;;0.93;0.30;;;;;;;3.85;93.92;96409.45;1626805;88;21033;-81
2022/11/19 02:15:38;;;;;;;0.37;0.30;;;;;;;3.83;94.09;96409.50;1637740;88;21463;-81
2022/11/19 02:18:29;;;;;;;;;;;;;;;3.82;94.04;96411.71;1640433;87;21001;-81
2022/11/19 02:21:13;;;;;;;0.37;0.30;;;;;;;3.76;94.29;96413.64;1637898;88;20341;-81
2022/11/19 02:24:00;;;;;;;0.60;0.25;;;;;;;3.73;94.35;96416.38;1620686;88;21110;-81
2022/11/19 02:26:50;;;;;;;0.40;0.20;;;;;;;3.72;94.35;96426.42;1637973;87;21088;-81
2022/11/19 02:29:37;;;;;;;0.57;0.20;;;;;;;3.61;92.47;96443.77;1636945;87;21071;-82
2022/11/19 02:32:16;;;;;;;0.75;0.23;;;;;;;3.54;93.70;96453.07;1637611;87;21024;-82
2022/11/19 02:34:54;;;;;;;0.57;0.33;;;;;;;3.53;94.00;96457.06;1637772;87;21084;-82
2022/11/19 02:37:44;;;;;;;0.50;0.30;;;;;;;3.47;93.73;96465.93;1617155;87;21149;-81
2022/11/19 02:40:19;;;;;;;0.75;0.35;;;;;;;3.42;93.77;96481.78;1609465;89;21035;-82
2022/11/19 02:43:00;;;;;;;0.62;0.30;;;;;;;3.40;94.07;96478.75;1609809;88;21016;-82
2022/11/19 02:45:41;;;;;;;0.23;0.20;;;;;;;3.42;94.41;96488.33;1608831;89;21056;-81
2022/11/19 02:48:13;;;;;;;0.80;0.30;;;;;;;3.40;94.27;96501.02;1610421;89;21020;-82
2022/11/19 02:50:48;;;;;;;0.30;0.20;;;;;;;3.40;94.43;96509.75;1610433;89;21020;-81
2022/11/19 02:53:15;;;;;;;1.12;0.40;;;;;;;3.39;94.22;96518.51;1610188;89;20988;-81
2022/11/19 02:56:09;;;;;;;0.80;0.30;;;;;;;3.39;94.18;96529.42;1588773;90;21059;-80
2022/11/19 03:04:28;;;;;;;1.75;0.33;;;;;;;3.38;94.28;96535.56;1584876;90;21447;-81
2022/11/19 03:06:22;;;;;;;2.08;0.30;;;;;;;3.46;94.72;96546.72;1573958;90;21479;-79
2022/11/19 03:08:51;;;;;;;0.80;0.50;;;;;;;3.45;94.45;96555.48;1587828;90;21061;-78
2022/11/19 03:11:28;;;;;;;0.35;0.30;;;;;;;3.40;94.85;96556.89;1597919;90;21069;-79
2022/11/19 03:17:21;;;;;;;1.30;0.40;;;;;;;3.33;94.18;96576.28;1583931;90;21099;-79
2022/11/19 03:20:02;;;;;;;0.53;0.30;;;;;;;3.30;94.35;96589.00;1614446;89;21521;-79
2022/11/19 03:22:36;;;;;;;0.95;0.70;;;;;;;3.30;94.49;96599.47;1597822;88;21096;-79
2022/11/19 03:25:14;;;;;;;0.30;0.23;;;;;;;3.28;94.10;96608.27;1613302;88;21457;-80
2022/11/19 03:27:45;;;;;;;0.60;0.40;;;;;;;3.21;93.97;96598.38;1598133;90;21469;-80
2022/11/19 03:30:15;;;;;;;0.37;0.30;;;;;;;3.20;94.13;96603.64;1614535;89;21042;-80
2022/11/19 03:32:47;;;;;;;0.62;0.40;;;;;;;3.19;94.22;96610.61;1597835;90;21095;-79
2022/11/19 03:35:25;;;;;;;0.50;0.50;;;;;;;3.16;94.26;96609.40;1614279;89;21445;-79
2022/11/19 03:37:56;;;;;;;0.62;0.40;;;;;;;3.12;94.53;96625.59;1598863;89;21143;-80
2022/11/19 03:40:24;;;;;;;0.45;0.40;;;;;;;3.10;94.46;96633.94;1639915;87;21449;-80
2022/11/19 03:42:54;;;;;;;1.75;0.60;;;;;;;3.09;94.38;96642.70;1639724;87;21057;-80
2022/11/19 03:45:31;;;;;;;0.62;0.50;;;;;;;3.07;94.74;96639.70;1639618;87;20992;-80
2022/11/19 03:48:01;;;;;;;0.80;0.60;;;;;;;3.07;94.76;96645.77;1639682;87;21072;-80
2022/11/19 03:50:39;;;;;;;0.70;0.60;;;;;;;3.08;94.62;96654.50;1639854;87;21044;-80
2022/11/19 03:53:06;;;;;;;0.85;0.60;;;;;;;3.09;94.46;96654.91;1635021;86;21032;-80
2022/11/19 03:55:37;;;;;;;5.22;0.80;;;;;;;3.08;94.51;96661.92;1639917;87;21545;-80
2022/11/19 03:58:05;;;;;;;1.22;0.80;;;;;;;3.08;94.58;96654.06;1640034;87;21029;-80
2022/11/19 04:00:32;;;;;;;0.70;0.50;;;;;;;3.08;94.62;96670.21;1639881;87;21076;-79
2022/11/19 04:02:59;;;;;;;0.78;0.60;;;;;;;3.08;94.67;96670.21;1639899;87;21019;-78
2022/11/19 04:05:26;;;;;;;0.80;0.70;;;;;;;3.08;94.96;96681.98;1639863;87;21017;-78
2022/11/19 04:07:52;;;;;;;1.95;0.53;;;;;;;3.09;94.87;96683.70;1639916;87;21026;-80
2022/11/19 04:10:19;;;;;;;1.37;0.72;;;;;;;3.08;94.65;96698.57;1640029;87;21076;-80
2022/11/19 04:12:45;;;;;;;1.10;0.60;;;;;;;3.06;94.51;96699.03;1639967;87;21425;-79
2022/11/19 04:15:14;;;;;;;1.15;0.70;;;;;;;3.05;94.72;96710.40;1639953;87;21044;-79
2022/11/19 04:17:40;;;;;;;2.25;0.90;;;;;;;3.03;94.61;96707.81;1639807;87;21474;-79
2022/11/19 04:20:09;;;;;;;1.72;0.70;;;;;;;3.04;94.56;96714.77;1639709;87;21075;-80
2022/11/19 04:22:35;;;;;;;1.75;0.78;;;;;;;3.06;94.53;96723.05;1639936;87;21008;-79
2022/11/19 04:25:02;;;;;;;0.95;0.80;;;;;;;3.03;94.38;96735.30;1639884;87;21048;-79
2022/11/19 04:27:29;;;;;;;0.80;0.72;;;;;;;3.08;94.79;96738.27;1639727;87;21008;-79
2022/11/19 04:29:55;;;;;;;0.93;0.68;;;;;;;3.15;95.07;96742.47;1639780;87;21434;-79
2022/11/19 04:32:22;;;;;;;1.35;0.78;;;;;;;3.19;94.86;96744.14;1639999;87;21044;-79
2022/11/19 04:34:49;;;;;;;0.90;0.60;;;;;;;3.23;95.00;96756.72;1639861;87;21016;-79
2022/11/19 04:37:15;;;;;;;0.90;0.70;;;;;;;3.27;94.83;96762.31;1639803;87;21009;-79
2022/11/19 04:39:42;;;;;;;1.55;0.53;;;;;;;3.29;94.74;96756.62;1627486;87;21043;-79
2022/11/19 04:42:08;;;;;;;1.27;0.70;;;;;;;3.33;95.01;96774.43;1598485;90;21039;-80
2022/11/19 04:44:35;;;;;;;1.37;0.60;;;;;;;3.34;94.68;96784.00;1651188;87;21406;-79
2022/11/19 04:47:02;;;;;;;1.00;0.70;;;;;;;3.40;95.20;96786.05;1651043;87;21003;-80
2022/11/19 04:49:28;;;;;;;1.45;0.90;;;;;;;3.43;95.16;96788.62;1643711;87;21129;-79
2022/11/19 04:51:55;;;;;;;1.12;0.88;;;;;;;3.43;94.95;96794.30;1643913;87;21449;-79
2022/11/19 04:54:21;;;;;;;1.12;0.90;;;;;;;3.46;94.85;96793.38;1643874;87;21028;-79
2022/11/19 04:56:48;;;;;;;1.30;1.20;;;;;;;3.47;94.83;96797.70;1643713;87;21060;-78
2022/11/19 04:59:14;;;;;;;1.72;0.98;;;;;;;3.43;94.41;96801.72;1643861;87;21481;-78
2022/11/19 05:01:41;;;;;;;1.95;1.00;;;;;;;3.42;94.65;96812.22;1643760;87;21060;-79
2022/11/19 05:04:09;;;;;;;1.50;1.10;;;;;;;3.39;94.85;96814.89;1643640;87;21530;-79
2022/11/19 05:06:35;;;;;;;1.57;1.20;;;;;;;3.37;94.53;96825.86;1643765;87;21024;-78
2022/11/19 05:09:02;;;;;;;1.92;1.30;;;;;;;3.35;94.57;96824.57;1643636;87;21000;-79
2022/11/19 05:11:28;;;;;;;1.52;1.40;;;;;;;3.34;94.52;96830.71;1643883;87;21012;-78
2022/11/19 05:13:55;;;;;;;2.30;1.40;;;;;;;3.37;94.98;96828.48;1643777;87;21414;-79
2022/11/19 05:16:21;;;;;;;2.00;1.40;;;;;;;3.41;94.93;96839.31;1643679;87;21025;-79
2022/11/19 05:18:48;;;;;;;1.50;1.27;;;;;;;3.42;95.00;96848.89;1643881;87;21446;-79
2022/11/19 05:21:14;;;;;;;2.95;2.02;;;;;;;3.42;95.09;96858.06;1643731;87;21101;-79
2022/11/19 05:23:40;;;;;;;4.53;2.80;;;;;;;3.42;94.99;96854.13;1643736;87;21020;-79
2022/11/19 05:26:07;;;;;;;4.85;2.90;;;;;;;3.41;94.85;96861.58;1643824;87;21070;-79
2022/11/19 05:28:33;;;;;;;5.30;3.17;;;;;;;3.40;94.76;96859.83;1643936;87;21028;-79
2022/11/19 05:30:59;;;;;;;3.50;2.25;;;;;;;3.36;94.64;96870.81;1643602;87;21008;-79
2022/11/19 05:33:26;;;;;;;3.02;2.20;;;;;;;3.35;94.57;96877.39;1643766;87;21366;-79
2022/11/19 05:35:52;;;;;;;2.10;1.70;;;;;;;3.29;94.15;96884.47;1643609;87;21056;-80
2022/11/19 05:38:19;;;;;;;2.00;1.75;;;;;;;3.22;93.81;96885.48;1642410;87;21451;-80
2022/11/19 05:40:47;;;;;;;3.70;2.40;;;;;;;3.21;94.37;96895.55;1641961;87;21052;-79
2022/11/19 05:43:15;;;;;;;3.67;2.85;;;;;;;3.22;94.34;96896.39;1637088;87;21409;-78
2022/11/19 05:45:41;;;;;;;4.58;2.83;;;;;;;3.21;94.36;96913.87;1635333;87;21089;-79
2022/11/19 05:48:08;;;;;;;4.12;2.52;;;;;;;3.22;94.44;96910.36;1641922;87;21008;-79
2022/11/19 05:50:34;;;;;;;21.95;5.05;;;;;;;3.22;94.54;96924.77;1641938;87;21040;-78
2022/11/19 05:53:03;;;;;;;14.45;4.60;;;;;;;3.23;94.53;96929.10;1641528;87;21426;-78
2022/11/19 05:55:31;;;;;;;10.60;2.83;;;;;;;3.24;94.45;96933.91;1641902;87;21060;-79
2022/11/19 05:57:57;;;;;;;10.53;2.87;;;;;;;3.18;94.03;96941.41;1641913;87;21481;-79
2022/11/19 06:00:24;;;;;;;9.85;4.00;;;;;;;3.14;94.32;96952.81;1641660;87;21020;-79
2022/11/19 06:02:51;;;;;;;9.50;6.60;;;;;;;3.11;94.37;96951.58;1641980;87;21008;-79
2022/11/19 06:05:17;;;;;;;4.78;3.80;;;;;;;3.08;94.19;96956.86;1641894;87;20980;-79
2022/11/19 06:07:43;;;;;;;4.60;3.33;;;;;;;3.09;94.37;96950.29;1600487;89;20963;-80
2022/11/19 06:10:10;;;;;;;4.60;3.27;;;;;;;3.07;94.30;96957.75;1599202;90;21052;-80
2022/11/19 06:12:37;;;;;;;4.37;3.30;;;;;;;3.05;94.08;96961.70;1635685;87;21028;-78
2022/11/19 06:15:05;;;;;;;4.15;3.35;;;;;;;3.01;93.85;96969.17;1635860;87;21032;-78
2022/11/19 06:17:32;;;;;;;5.00;3.42;;;;;;;3.02;94.10;96982.25;1635281;87;20949;-79
2022/11/19 06:19:59;;;;;;;4.62;2.83;;;;;;;3.02;94.00;96986.17;1635672;88;20981;-78
2022/11/19 06:22:25;;;;;;;4.15;3.25;;;;;;;2.98;93.76;96991.03;1635843;87;21052;-79
2022/11/19 06:24:52;;;;;;;4.33;3.15;;;;;;;2.95;93.79;96996.77;1635879;88;21056;-79
2022/11/19 06:27:18;;;;;;;4.28;3.30;;;;;;;2.94;93.96;97003.73;1635608;87;21000;-79
2022/11/19 06:29:45;;;;;;;4.78;3.52;;;;;;;2.94;94.05;97011.59;1635946;88;20969;-79
2022/11/19 06:32:12;;;;;;;5.35;3.60;;;;;;;3.01;94.17;97021.09;1635838;88;21008;-79
2022/11/19 06:34:38;;;;;;;5.08;3.72;;;;;;;3.07;94.31;97028.44;1635787;87;21005;-79
2022/11/19 06:37:05;;;;;;;5.17;4.03;;;;;;;3.15;94.38;97022.61;1635961;87;20985;-79
2022/11/19 06:39:31;;;;;;;5.05;3.77;;;;;;;3.17;94.21;97023.47;1621757;87;21028;-79
2022/11/19 06:42:34;;;;;;;6.15;3.90;;;;;;;3.22;94.32;97038.66;1569631;90;21013;-79
2022/11/19 06:44:26;;;;;;;6.58;3.72;;;;;;;3.35;94.80;97040.64;1594800;90;21104;-78
2022/11/19 06:46:53;;;;;;;7.78;4.42;;;;;;;3.39;94.17;97047.56;1614079;89;21040;-79
2022/11/19 06:49:19;;;;;;;8.43;3.27;;;;;;;3.44;94.40;97050.09;1597975;90;21067;-79
2022/11/19 06:51:46;;;;;;;8.58;4.40;;;;;;;3.51;94.04;97044.31;1614280;89;21072;-78
2022/11/19 06:54:12;;;;;;;8.15;3.85;;;;;;;3.55;93.95;97058.66;1597965;90;21115;-78
2022/11/19 06:56:39;;;;;;;12.03;4.35;;;;;;;3.56;93.09;97060.39;1614314;89;21091;-78
2022/11/19 06:59:05;;;;;;;9.75;4.50;;;;;;;3.51;92.78;97060.03;1597968;90;21487;-78
2022/11/19 07:01:32;;;;;;;16.30;5.28;;;;;;;3.51;93.38;97067.45;1612072;88;21115;-78
2022/11/19 07:03:58;;;;;;;25.00;6.00;;;;;;;3.51;93.18;97067.45;1589796;90;21024;-78
2022/11/19 07:06:25;;;;;;;32.35;6.97;;;;;;;3.51;93.05;97079.68;1578985;90;21446;-79
2022/11/19 07:08:51;;;;;;;25.60;6.47;;;;;;;3.47;92.51;97089.78;1602626;89;20968;-78
2022/11/19 07:11:26;;;;;;;33.58;6.40;;;;;;;3.49;93.07;97081.47;1605148;89;21063;-78
2022/11/19 07:13:57;;;;;;;21.50;6.22;;;;;;;3.54;93.55;97082.27;1592830;90;21072;-80
2022/11/19 07:16:28;;;;;;;13.25;5.70;;;;;;;3.63;93.87;97084.73;1588898;90;21548;-77
2022/11/19 07:18:58;;;;;;;17.40;5.08;;;;;;;3.68;93.52;97077.66;1613104;89;21110;-78
2022/11/19 07:21:26;;;;;;;9.58;5.22;;;;;;;3.69;92.98;97079.38;1594492;90;21092;-78
2022/11/19 07:23:54;;;;;;;9.55;5.42;;;;;;;3.73;92.73;97099.84;1608586;89;21063;-78
2022/11/19 07:26:21;;;;;;;8.60;4.95;;;;;;;3.71;92.83;97096.40;1600890;89;21052;-77
2022/11/19 07:28:49;;;;;;;6.33;4.30;;;;;;;3.69;92.69;97099.47;1573812;90;22408;-78
2022/11/19 07:31:15;;;;;;;7.00;4.90;;;;;;;3.71;92.43;97092.47;1608210;89;20972;-78
2022/11/19 07:33:42;;;;;;;7.28;5.00;;;;;;;3.70;92.33;97098.14;1591069;90;21101;-77
2022/11/19 07:36:11;;;;;;;7.50;4.90;;;;;;;3.73;92.88;97104.24;1609912;89;21015;-78
2022/11/19 07:38:38;;;;;;;7.80;5.00;;;;;;;3.76;92.79;97116.84;1590789;88;21056;-78
2022/11/19 07:42:47;;;;;;;7.28;4.55;;;;;;;3.77;92.50;97125.12;1590208;90;21002;-78
2022/11/19 07:43:34;;;;;;;6.10;3.80;;;;;;;3.77;91.83;97137.34;1592087;90;21554;-78
2022/11/19 07:46:04;;;;;;;7.40;4.65;;;;;;;3.81;92.48;97131.16;1554490;91;21069;-77
2022/11/19 07:48:31;;;;;;;6.55;4.80;;;;;;;3.91;92.26;97138.45;1575537;90;21016;-78
2022/11/19 07:50:57;;;;;;;8.03;4.97;;;;;;;3.96;92.15;97145.79;1575531;90;21071;-79
2022/11/19 07:53:24;;;;;;;5.97;4.00;;;;;;;3.99;91.53;97140.94;1575660;90;21044;-78
2022/11/19 07:55:50;;;;;;;9.35;4.60;;;;;;;4.00;90.85;97147.91;1575608;90;21072;-78
2022/11/19 07:58:17;;;;;;;6.20;4.22;;;;;;;4.00;91.50;97154.03;1575460;90;21099;-78
2022/11/19 08:00:43;;;;;;;5.83;3.92;;;;;;;4.01;91.15;97161.42;1554774;91;21059;-77
2022/11/19 08:03:10;;;;;;;7.25;4.17;;;;;;;3.99;91.06;97175.91;1575534;90;21449;-78
2022/11/19 08:05:39;;;;;;;5.62;4.05;;;;;;;3.98;90.88;97176.77;1575435;90;21052;-78
2022/11/19 08:08:07;;;;;;;5.05;3.83;;;;;;;3.99;91.21;97178.95;1575399;90;21043;-78
2022/11/19 08:10:34;;;;;;;5.37;3.95;;;;;;;4.03;91.43;97180.64;1575567;90;21032;-77
2022/11/19 08:13:03;;;;;;;5.72;4.08;;;;;;;4.03;90.78;97168.38;1575314;90;21502;-78
2022/11/19 08:15:32;;;;;;;9.58;6.80;;;;;;;4.00;90.16;97178.06;1575630;90;21079;-78
2022/11/19 08:18:12;;;;;;;6.05;3.98;;;;;;;4.00;90.91;97180.68;1598384;90;21454;-80
2022/11/19 08:20:42;;;;;;;6.28;4.33;;;;;;;4.02;90.47;97186.31;1615595;89;21168;-79
2022/11/19 08:23:10;;;;;;;7.62;4.87;;;;;;;4.01;90.40;97194.20;1618244;87;21503;-79
2022/11/19 08:25:37;;;;;;;7.92;5.17;;;;;;;4.03;90.92;97203.77;1616127;88;20998;-78
2022/11/19 08:28:04;;;;;;;6.58;4.95;;;;;;;4.07;90.62;97216.41;1620793;88;21025;-78
2022/11/19 08:30:32;;;;;;;6.37;5.10;;;;;;;4.04;90.63;97216.02;1620617;88;22254;-78
2022/11/19 08:32:59;;;;;;;8.88;5.35;;;;;;;4.08;90.83;97220.30;1620575;88;21038;-78
2022/11/19 08:35:26;;;;;;;8.38;5.45;;;;;;;4.13;90.86;97227.23;1620751;88;21018;-78
2022/11/19 08:37:52;;;;;;;9.13;6.22;;;;;;;4.17;91.10;97227.17;1620711;88;21475;-77
2022/11/19 08:40:19;;;;;;;8.50;6.20;;;;;;;4.20;91.08;97226.26;1627713;87;21028;-79
2022/11/19 08:43:00;;;;;;;10.43;7.33;;;;;;;4.20;90.40;97228.41;1627418;87;21020;-78
2022/11/19 08:45:36;;;;;;;9.35;5.90;;;;;;;4.20;90.80;97234.97;1629210;88;20996;-78
2022/11/19 08:48:08;;;;;;;10.38;5.90;;;;;;;4.21;90.67;97243.28;1619295;87;21454;-79
2022/11/19 08:50:34;;;;;;;8.90;5.65;;;;;;;4.23;90.88;97249.36;1644479;87;21003;-78
2022/11/19 08:53:04;;;;;;;9.25;6.20;;;;;;;4.27;90.78;97251.94;1638845;87;21047;-77
2022/11/19 08:55:31;;;;;;;10.65;6.25;;;;;;;4.28;90.79;97247.11;1641991;87;21091;-78
2022/11/19 08:58:02;;;;;;;9.20;6.58;;;;;;;4.28;90.61;97251.89;1632711;87;21020;-79
2022/11/19 09:00:31;;;;;;;9.83;7.37;;;;;;;4.29;90.43;97244.90;1646425;87;21434;-78
2022/11/19 09:02:58;;;;;;;10.60;7.37;;;;;;;4.27;90.81;97248.01;1643186;87;21521;-78
2022/11/19 09:05:25;;;;;;;11.63;7.37;;;;;;;4.26;90.77;97241.00;1625607;87;20944;-79
2022/11/19 09:07:54;;;;;;;11.18;7.00;;;;;;;4.29;91.12;97242.28;1637965;87;21095;-77
2022/11/19 09:10:21;;;;;;;10.75;7.10;;;;;;;4.29;90.70;97244.90;1647177;87;20996;-79
2022/11/19 09:12:48;;;;;;;10.55;6.78;;;;;;;4.30;90.64;97243.56;1647323;87;21063;-78
2022/11/19 09:15:15;;;;;;;11.10;7.62;;;;;;;4.30;90.51;97251.44;1646983;87;21016;-78
2022/11/19 09:17:41;;;;;;;11.63;7.17;;;;;;;4.35;90.65;97249.60;1647151;87;20984;-78
2022/11/19 09:20:08;;;;;;;9.93;6.62;;;;;;;4.42;90.77;97256.93;1647242;87;21473;-77
2022/11/19 09:22:35;;;;;;;12.07;7.72;;;;;;;4.47;90.79;97244.59;1646940;87;21478;-77
2022/11/19 09:25:02;;;;;;;10.50;7.53;;;;;;;4.54;90.89;97247.98;1647085;87;21079;-77
2022/11/19 09:27:30;;;;;;;12.33;8.15;;;;;;;4.52;90.03;97263.34;1645959;87;20960;-76
2022/11/19 09:29:56;;;;;;;12.30;8.10;;;;;;;4.43;90.17;97257.78;1646016;87;20996;-76
2022/11/19 09:32:23;;;;;;;15.35;9.60;;;;;;;4.48;90.98;97265.13;1647064;87;21492;-76
2022/11/19 09:34:49;;;;;;;16.67;11.28;;;;;;;4.54;90.72;97274.66;1647151;87;21055;-77
2022/11/19 09:37:16;;;;;;;17.50;11.90;;;;;;;4.59;90.85;97257.95;1647043;87;21000;-77
2022/11/19 09:39:42;;;;;;;18.02;12.18;;;;;;;4.67;91.04;97260.44;1649064;86;21031;-77
2022/11/19 09:42:28;;;;;;;20.82;12.40;;;;;;;4.75;91.16;97258.98;1654894;87;21112;-75
2022/11/19 09:45:17;;;;;;;20.08;13.08;;;;;;;4.82;90.71;97261.06;1654953;87;21460;-77
2022/11/19 09:48:02;;;;;;;22.27;14.70;;;;;;;4.79;89.97;97244.04;1612159;88;21425;-78
2022/11/19 09:50:33;;;;;;;20.40;12.93;;;;;;;4.70;89.75;97249.87;1650780;86;21020;-78
2022/11/19 09:53:06;;;;;;;20.15;12.95;;;;;;;4.64;89.84;97235.55;1651206;86;21000;-79
2022/11/19 09:55:37;;;;;;;17.80;11.60;;;;;;;4.68;90.51;97240.29;1643857;87;21481;-79
2022/11/19 09:58:12;;;;;;;17.57;10.95;;;;;;;4.79;90.56;97245.35;1621260;87;21004;-78
2022/11/19 10:00:39;;;;;;;15.80;10.53;;;;;;;4.88;90.26;97244.75;1639349;87;21024;-77
2022/11/19 10:03:17;;;;;;;15.55;10.80;;;;;;;4.93;89.57;97243.77;1618318;87;21032;-77
2022/11/19 10:06:07;;;;;;;13.78;9.25;;;;;;;4.94;88.30;97242.43;1623704;87;21016;-78
2022/11/19 10:08:48;;;;;;;17.40;11.03;;;;;;;4.92;88.82;97250.80;1639950;87;21380;-79
2022/11/19 10:11:20;;;;;;;13.85;9.70;;;;;;;4.88;89.13;97252.62;1637602;87;21028;-78
2022/11/19 10:14:11;;;;;;;15.15;10.32;;;;;;;4.79;88.69;97252.80;1636449;87;21485;-78
2022/11/19 10:16:46;;;;;;;20.77;10.68;;;;;;;4.68;88.61;97256.04;1640915;87;21052;-78
2022/11/19 10:19:53;;;;;;;16.73;12.13;;;;;;;4.59;89.14;97260.58;1633874;87;21035;-78
2022/11/19 10:22:44;;;;;;;17.85;11.53;;;;;;;4.57;89.07;97257.09;1633099;87;21013;-76
2022/11/19 10:25:16;;;;;;;17.27;12.35;;;;;;;4.52;89.13;97260.72;1631767;87;21067;-76
2022/11/19 10:27:50;;;;;;;16.62;11.20;;;;;;;4.53;89.47;97263.75;1633034;87;21004;-77
2022/11/19 10:30:20;;;;;;;;;;;;;;;4.51;89.27;97267.70;1629735;86;21002;-79
2022/11/19 10:32:58;;;;;;;17.82;10.65;;;;;;;4.50;89.42;97275.16;1621306;87;20371;-78
2022/11/19 10:35:41;;;;;;;14.85;9.50;;;;;;;4.48;89.44;97275.19;1640360;86;20985;-78
2022/11/19 10:38:33;;;;;;;14.18;9.60;;;;;;;4.45;88.78;97271.29;1635048;87;21039;-78
2022/11/19 10:41:04;;;;;;;14.33;10.35;;;;;;;4.43;89.05;97270.89;1631230;87;20993;-78
2022/11/19 10:43:48;;;;;;;17.30;10.88;;;;;;;4.49;89.60;97269.50;1621184;87;21041;-78
2022/11/19 10:46:19;;;;;;;23.10;15.65;;;;;;;4.56;89.62;97271.55;1633291;88;21024;-75
2022/11/19 10:48:51;;;;;;;17.98;12.60;;;;;;;4.62;89.59;97260.97;1631626;87;21534;-74
2022/11/19 10:51:26;;;;;;;18.55;12.53;;;;;;;4.67;89.09;97263.50;1637015;87;21080;-73
2022/11/19 10:53:55;;;;;;;19.50;12.45;;;;;;;4.67;88.72;97266.13;1630725;88;21530;-74
2022/11/19 10:56:36;;;;;;;18.27;12.58;;;;;;;4.71;88.79;97259.94;1636820;88;21115;-72
2022/11/19 10:59:20;;;;;;;21.27;12.58;;;;;;;4.73;88.50;97256.82;1630019;88;21068;-74
2022/11/19 11:01:51;;;;;;;22.30;12.80;;;;;;;4.76;88.43;97252.84;1632544;88;21351;-74
2022/11/19 11:04:24;;;;;;;25.82;13.55;;;;;;;4.78;87.72;97259.38;1630372;88;21012;-74
2022/11/19 11:06:59;;;;;;;20.70;12.30;;;;;;;4.77;87.94;97265.06;1634837;87;21064;-74
2022/11/19 11:09:41;;;;;;;19.95;12.47;;;;;;;4.76;88.01;97269.91;1629390;88;20993;-74
2022/11/19 11:15:24;;;;;;;19.40;11.12;;;;;;;4.82;87.92;97263.69;1632604;87;21001;-75
2022/11/19 11:18:04;;;;;;;14.35;9.95;;;;;;;4.83;88.00;97256.22;1633585;88;21027;-74
2022/11/19 11:20:32;;;;;;;19.07;11.20;;;;;;;4.81;87.88;97269.84;1610271;89;21019;-76
2022/11/19 11:23:16;;;;;;;22.05;12.25;;;;;;;4.79;88.11;97269.86;1596927;90;21008;-75
2022/11/19 11:26:03;;;;;;;19.40;10.70;;;;;;;4.78;87.26;97272.50;1619648;88;21048;-74
2022/11/19 11:28:30;;;;;;;21.73;10.00;;;;;;;4.74;87.25;97264.67;1627108;88;21466;-74
2022/11/19 11:31:09;;;;;;;18.20;10.25;;;;;;;4.70;87.21;97264.77;1632611;87;21123;-75
2022/11/19 11:33:56;;;;;;;17.92;10.15;;;;;;;4.70;87.58;97256.89;1632862;88;20965;-75
2022/11/19 11:36:27;;;;;;;19.10;11.83;;;;;;;4.70;87.93;97255.58;1634496;88;21075;-74
2022/11/19 11:38:58;;;;;;;13.95;9.13;;;;;;;4.72;88.09;97255.97;1631627;88;21056;-74
2022/11/19 11:41:36;;;;;;;13.78;9.33;;;;;;;4.72;87.84;97248.09;1636771;87;21028;-74
2022/11/19 11:44:08;;;;;;;12.47;8.55;;;;;;;4.72;87.60;97240.66;1630821;88;21028;-74
2022/11/19 11:46:48;;;;;;;43.50;30.77;;;;;;;4.70;87.30;97256.43;1635457;86;21017;-75
2022/11/19 11:49:40;;;;;;;17.25;11.12;;;;;;;4.69;87.80;97253.39;1630060;88;21016;-75
2022/11/19 11:52:18;;;;;;;11.90;8.03;;;;;;;4.72;87.73;97257.28;1635135;88;21035;-75
2022/11/19 11:55:08;;;;;;;11.57;6.80;;;;;;;4.72;87.83;97261.66;1632371;88;21492;-74
2022/11/19 11:57:43;;;;;;;8.73;6.28;;;;;;;4.70;87.51;97264.77;1633028;88;21048;-75
2022/11/19 12:00:38;;;;;;;11.35;8.18;;;;;;;4.69;87.73;97270.92;1630720;87;21068;-74
2022/11/19 12:03:12;;;;;;;;;;;;;;;4.70;87.90;97263.45;1632265;88;21108;-74
2022/11/19 12:06:01;;;;;;;13.35;6.85;;;;;;;4.76;88.04;97264.65;1627845;88;20132;-73
2022/11/19 12:09:06;;;;;;;8.73;6.17;;;;;;;4.77;87.54;97265.06;1634469;88;20992;-75
2022/11/19 12:11:53;;;;;;;10.08;5.97;;;;;;;4.73;87.25;97269.94;1629994;88;21067;-75